sensor_id;sensor_type;location;lat;lon;timestamp;temperature;humidity
2995;DHT22;35277;49.890;8.222;2022-12-01T00:01:20;21.90;71.60
2995;DHT22;35277;49.890;8.222;2022-12-01T00:03:48;21.90;71.60
2995;DHT22;35277;49.890;8.222;2022-12-01T00:06:17;21.90;71.50
2995;DHT22;35277;49.890;8.222;2022-12-01T00:08:48;21.90;71.50
2995;DHT22;35277;49.890;8.222;2022-12-01T00:11:35;21.90;71.50
2995;DHT22;35277;49.890;8.222;2022-12-01T00:14:04;21.90;71.50
2995;DHT22;35277;49.890;8.222;2022-12-01T00:16:32;21.90;71.60
2995;DHT22;35277;49.890;8.222;2022-12-01T00:19:00;21.90;71.60
2995;DHT22;35277;49.890;8.222;2022-12-01T00:21:28;21.90;71.60
2995;DHT22;35277;49.890;8.222;2022-12-01T00:23:57;21.90;71.60
2995;DHT22;35277;49.890;8.222;2022-12-01T00:26:25;21.90;71.60
2995;DHT22;35277;49.890;8.222;2022-12-01T00:28:55;21.90;71.60
2995;DHT22;35277;49.890;8.222;2022-12-01T00:31:24;21.90;72.40
2995;DHT22;35277;49.890;8.222;2022-12-01T00:33:52;21.90;71.60
2995;DHT22;35277;49.890;8.222;2022-12-01T00:36:21;21.90;71.60
2995;DHT22;35277;49.890;8.222;2022-12-01T00:38:51;21.90;71.70
2995;DHT22;35277;49.890;8.222;2022-12-01T00:41:22;21.90;71.60
2995;DHT22;35277;49.890;8.222;2022-12-01T00:43:50;21.90;71.70
2995;DHT22;35277;49.890;8.222;2022-12-01T00:46:18;21.90;71.70
2995;DHT22;35277;49.890;8.222;2022-12-01T00:48:47;21.90;71.60
2995;DHT22;35277;49.890;8.222;2022-12-01T00:51:15;21.90;71.60
2995;DHT22;35277;49.890;8.222;2022-12-01T00:53:43;21.90;71.60
2995;DHT22;35277;49.890;8.222;2022-12-01T00:56:11;21.90;71.70
2995;DHT22;35277;49.890;8.222;2022-12-01T00:58:40;21.90;71.70
2995;DHT22;35277;49.890;8.222;2022-12-01T01:01:08;21.90;71.70
2995;DHT22;35277;49.890;8.222;2022-12-01T01:03:36;21.90;71.70
2995;DHT22;35277;49.890;8.222;2022-12-01T01:06:04;21.90;71.70
2995;DHT22;35277;49.890;8.222;2022-12-01T01:08:33;21.90;71.70
2995;DHT22;35277;49.890;8.222;2022-12-01T01:11:01;21.90;71.70
2995;DHT22;35277;49.890;8.222;2022-12-01T01:13:29;21.90;71.70
2995;DHT22;35277;49.890;8.222;2022-12-01T01:16:00;21.90;71.70
2995;DHT22;35277;49.890;8.222;2022-12-01T01:18:28;21.90;71.70
2995;DHT22;35277;49.890;8.222;2022-12-01T01:20:57;21.90;71.70
2995;DHT22;35277;49.890;8.222;2022-12-01T01:23:25;21.90;71.70
2995;DHT22;35277;49.890;8.222;2022-12-01T01:25:53;21.90;71.70
2995;DHT22;35277;49.890;8.222;2022-12-01T01:28:21;21.90;71.70
2995;DHT22;35277;49.890;8.222;2022-12-01T01:30:48;21.90;71.70
2995;DHT22;35277;49.890;8.222;2022-12-01T01:33:17;21.90;71.70
2995;DHT22;35277;49.890;8.222;2022-12-01T01:35:45;21.90;71.70
2995;DHT22;35277;49.890;8.222;2022-12-01T01:38:13;21.90;71.70
2995;DHT22;35277;49.890;8.222;2022-12-01T01:40:44;21.90;71.70
2995;DHT22;35277;49.890;8.222;2022-12-01T01:43:14;21.90;71.70
2995;DHT22;35277;49.890;8.222;2022-12-01T01:45:42;21.90;71.70
2995;DHT22;35277;49.890;8.222;2022-12-01T01:48:12;21.90;71.70
2995;DHT22;35277;49.890;8.222;2022-12-01T01:50:41;21.90;71.70
2995;DHT22;35277;49.890;8.222;2022-12-01T01:53:11;21.90;71.70
2995;DHT22;35277;49.890;8.222;2022-12-01T01:55:39;21.90;71.70
2995;DHT22;35277;49.890;8.222;2022-12-01T01:58:09;21.90;71.70
2995;DHT22;35277;49.890;8.222;2022-12-01T02:00:38;21.90;71.80
2995;DHT22;35277;49.890;8.222;2022-12-01T02:03:08;21.90;71.80
2995;DHT22;35277;49.890;8.222;2022-12-01T02:05:37;21.90;71.80
2995;DHT22;35277;49.890;8.222;2022-12-01T02:08:07;21.90;71.80
2995;DHT22;35277;49.890;8.222;2022-12-01T02:10:49;21.90;71.80
2995;DHT22;35277;49.890;8.222;2022-12-01T02:13:22;21.90;71.80
2995;DHT22;35277;49.890;8.222;2022-12-01T02:16:02;21.90;71.80
2995;DHT22;35277;49.890;8.222;2022-12-01T02:18:39;21.90;71.90
2995;DHT22;35277;49.890;8.222;2022-12-01T02:21:23;21.90;71.80
2995;DHT22;35277;49.890;8.222;2022-12-01T02:24:45;21.90;71.80
2995;DHT22;35277;49.890;8.222;2022-12-01T02:27:26;21.90;71.90
2995;DHT22;35277;49.890;8.222;2022-12-01T02:30:06;21.90;71.90
2995;DHT22;35277;49.890;8.222;2022-12-01T02:32:49;21.90;71.90
2995;DHT22;35277;49.890;8.222;2022-12-01T02:35:23;21.90;71.90
2995;DHT22;35277;49.890;8.222;2022-12-01T02:38:01;21.90;71.90
2995;DHT22;35277;49.890;8.222;2022-12-01T02:40:35;21.90;71.90
2995;DHT22;35277;49.890;8.222;2022-12-01T02:43:11;21.90;71.90
2995;DHT22;35277;49.890;8.222;2022-12-01T02:45:44;21.90;71.90
2995;DHT22;35277;49.890;8.222;2022-12-01T02:48:19;21.90;71.90
2995;DHT22;35277;49.890;8.222;2022-12-01T02:50:50;21.90;71.90
2995;DHT22;35277;49.890;8.222;2022-12-01T02:53:19;21.90;71.90
2995;DHT22;35277;49.890;8.222;2022-12-01T02:55:48;21.90;71.90
2995;DHT22;35277;49.890;8.222;2022-12-01T02:58:16;21.90;71.90
2995;DHT22;35277;49.890;8.222;2022-12-01T03:00:55;21.90;72.00
2995;DHT22;35277;49.890;8.222;2022-12-01T03:03:41;21.90;71.90
2995;DHT22;35277;49.890;8.222;2022-12-01T03:06:19;21.90;72.00
2995;DHT22;35277;49.890;8.222;2022-12-01T03:08:51;21.90;72.00
2995;DHT22;35277;49.890;8.222;2022-12-01T03:11:30;21.90;71.90
2995;DHT22;35277;49.890;8.222;2022-12-01T03:14:09;21.90;71.90
2995;DHT22;35277;49.890;8.222;2022-12-01T03:16:46;21.90;72.00
2995;DHT22;35277;49.890;8.222;2022-12-01T03:19:22;21.90;71.90
2995;DHT22;35277;49.890;8.222;2022-12-01T03:21:59;21.90;71.90
2995;DHT22;35277;49.890;8.222;2022-12-01T03:24:29;21.90;71.90
2995;DHT22;35277;49.890;8.222;2022-12-01T03:26:59;21.90;71.90
2995;DHT22;35277;49.890;8.222;2022-12-01T03:29:31;21.90;72.00
2995;DHT22;35277;49.890;8.222;2022-12-01T03:32:03;21.90;71.90
2995;DHT22;35277;49.890;8.222;2022-12-01T03:34:37;21.90;72.00
2995;DHT22;35277;49.890;8.222;2022-12-01T03:37:11;21.90;71.90
2995;DHT22;35277;49.890;8.222;2022-12-01T03:39:41;21.90;72.00
2995;DHT22;35277;49.890;8.222;2022-12-01T03:42:14;21.90;71.90
2995;DHT22;35277;49.890;8.222;2022-12-01T03:44:45;21.90;72.00
2995;DHT22;35277;49.890;8.222;2022-12-01T03:47:16;21.90;72.00
2995;DHT22;35277;49.890;8.222;2022-12-01T03:49:49;21.90;72.00
2995;DHT22;35277;49.890;8.222;2022-12-01T03:52:24;21.90;72.00
2995;DHT22;35277;49.890;8.222;2022-12-01T03:55:04;21.90;72.00
2995;DHT22;35277;49.890;8.222;2022-12-01T03:57:39;21.90;72.00
2995;DHT22;35277;49.890;8.222;2022-12-01T04:00:08;21.90;72.00
2995;DHT22;35277;49.890;8.222;2022-12-01T04:02:40;21.90;72.00
2995;DHT22;35277;49.890;8.222;2022-12-01T04:05:12;21.90;72.00
2995;DHT22;35277;49.890;8.222;2022-12-01T04:07:40;21.90;72.00
2995;DHT22;35277;49.890;8.222;2022-12-01T04:10:08;21.90;72.10
2995;DHT22;35277;49.890;8.222;2022-12-01T04:12:36;21.90;72.00
2995;DHT22;35277;49.890;8.222;2022-12-01T04:15:05;21.90;72.00
2995;DHT22;35277;49.890;8.222;2022-12-01T04:17:34;21.90;72.10
2995;DHT22;35277;49.890;8.222;2022-12-01T04:20:03;21.90;72.10
2995;DHT22;35277;49.890;8.222;2022-12-01T04:22:33;21.90;72.10
2995;DHT22;35277;49.890;8.222;2022-12-01T04:25:01;21.90;72.10
2995;DHT22;35277;49.890;8.222;2022-12-01T04:27:28;21.90;72.10
2995;DHT22;35277;49.890;8.222;2022-12-01T04:29:56;21.90;72.10
2995;DHT22;35277;49.890;8.222;2022-12-01T04:32:24;21.90;72.10
2995;DHT22;35277;49.890;8.222;2022-12-01T04:34:52;21.90;72.10
2995;DHT22;35277;49.890;8.222;2022-12-01T04:37:20;21.90;72.10
2995;DHT22;35277;49.890;8.222;2022-12-01T04:39:49;21.90;72.10
2995;DHT22;35277;49.890;8.222;2022-12-01T04:42:17;21.90;72.10
2995;DHT22;35277;49.890;8.222;2022-12-01T04:44:45;21.90;72.10
2995;DHT22;35277;49.890;8.222;2022-12-01T04:47:13;21.90;72.10
2995;DHT22;35277;49.890;8.222;2022-12-01T04:49:40;21.90;72.10
2995;DHT22;35277;49.890;8.222;2022-12-01T04:52:08;21.90;72.10
2995;DHT22;35277;49.890;8.222;2022-12-01T04:54:36;21.90;72.00
2995;DHT22;35277;49.890;8.222;2022-12-01T04:57:05;21.90;72.10
2995;DHT22;35277;49.890;8.222;2022-12-01T04:59:33;21.90;72.10
2995;DHT22;35277;49.890;8.222;2022-12-01T05:02:00;21.90;72.10
2995;DHT22;35277;49.890;8.222;2022-12-01T05:04:29;21.90;72.20
2995;DHT22;35277;49.890;8.222;2022-12-01T05:06:59;21.90;72.20
2995;DHT22;35277;49.890;8.222;2022-12-01T05:09:27;21.90;72.30
2995;DHT22;35277;49.890;8.222;2022-12-01T05:11:54;21.90;72.40
2995;DHT22;35277;49.890;8.222;2022-12-01T05:14:23;21.90;72.40
2995;DHT22;35277;49.890;8.222;2022-12-01T05:16:51;21.90;72.50
2995;DHT22;35277;49.890;8.222;2022-12-01T05:19:20;21.90;72.50
2995;DHT22;35277;49.890;8.222;2022-12-01T05:22:06;21.90;72.50
2995;DHT22;35277;49.890;8.222;2022-12-01T05:24:33;21.90;72.50
2995;DHT22;35277;49.890;8.222;2022-12-01T05:27:01;21.90;72.40
2995;DHT22;35277;49.890;8.222;2022-12-01T05:29:30;21.90;73.00
2995;DHT22;35277;49.890;8.222;2022-12-01T05:31:59;21.90;72.40
2995;DHT22;35277;49.890;8.222;2022-12-01T05:34:28;21.90;72.30
2995;DHT22;35277;49.890;8.222;2022-12-01T05:36:56;21.90;72.30
2995;DHT22;35277;49.890;8.222;2022-12-01T05:39:24;21.90;72.20
2995;DHT22;35277;49.890;8.222;2022-12-01T05:41:52;21.90;72.10
2995;DHT22;35277;49.890;8.222;2022-12-01T05:44:19;21.90;72.10
2995;DHT22;35277;49.890;8.222;2022-12-01T05:46:49;21.90;72.00
2995;DHT22;35277;49.890;8.222;2022-12-01T05:49:16;21.90;72.00
2995;DHT22;35277;49.890;8.222;2022-12-01T05:51:44;21.90;71.90
2995;DHT22;35277;49.890;8.222;2022-12-01T05:54:12;21.90;71.80
2995;DHT22;35277;49.890;8.222;2022-12-01T05:56:41;21.90;71.80
2995;DHT22;35277;49.890;8.222;2022-12-01T05:59:09;21.90;71.80
2995;DHT22;35277;49.890;8.222;2022-12-01T06:01:37;21.90;71.70
2995;DHT22;35277;49.890;8.222;2022-12-01T06:04:06;21.90;71.70
2995;DHT22;35277;49.890;8.222;2022-12-01T06:06:34;21.90;71.70
2995;DHT22;35277;49.890;8.222;2022-12-01T06:09:02;21.90;71.60
2995;DHT22;35277;49.890;8.222;2022-12-01T06:11:30;21.90;71.50
2995;DHT22;35277;49.890;8.222;2022-12-01T06:13:57;21.90;71.50
2995;DHT22;35277;49.890;8.222;2022-12-01T06:16:25;21.90;71.40
2995;DHT22;35277;49.890;8.222;2022-12-01T06:18:53;21.90;71.30
2995;DHT22;35277;49.890;8.222;2022-12-01T06:21:22;21.90;71.30
2995;DHT22;35277;49.890;8.222;2022-12-01T06:23:50;21.90;71.40
2995;DHT22;35277;49.890;8.222;2022-12-01T06:26:17;21.90;71.50
2995;DHT22;35277;49.890;8.222;2022-12-01T06:28:45;21.90;71.50
2995;DHT22;35277;49.890;8.222;2022-12-01T06:31:13;21.90;71.50
2995;DHT22;35277;49.890;8.222;2022-12-01T06:33:41;21.90;71.50
2995;DHT22;35277;49.890;8.222;2022-12-01T06:36:09;21.90;71.50
2995;DHT22;35277;49.890;8.222;2022-12-01T06:38:38;21.90;71.60
2995;DHT22;35277;49.890;8.222;2022-12-01T06:41:06;21.90;71.50
2995;DHT22;35277;49.890;8.222;2022-12-01T06:43:34;21.90;71.50
2995;DHT22;35277;49.890;8.222;2022-12-01T06:46:03;21.90;71.50
2995;DHT22;35277;49.890;8.222;2022-12-01T06:48:31;21.90;71.50
2995;DHT22;35277;49.890;8.222;2022-12-01T06:51:00;21.90;71.50
2995;DHT22;35277;49.890;8.222;2022-12-01T06:53:28;21.90;71.50
2995;DHT22;35277;49.890;8.222;2022-12-01T06:55:59;21.90;71.40
2995;DHT22;35277;49.890;8.222;2022-12-01T06:58:28;21.90;71.40
2995;DHT22;35277;49.890;8.222;2022-12-01T07:00:56;21.90;71.40
2995;DHT22;35277;49.890;8.222;2022-12-01T07:03:24;21.90;71.40
2995;DHT22;35277;49.890;8.222;2022-12-01T07:05:57;21.90;71.30
2995;DHT22;35277;49.890;8.222;2022-12-01T07:08:25;21.90;71.30
2995;DHT22;35277;49.890;8.222;2022-12-01T07:10:59;21.90;71.30
2995;DHT22;35277;49.890;8.222;2022-12-01T07:13:27;21.90;71.30
2995;DHT22;35277;49.890;8.222;2022-12-01T07:15:59;21.90;71.30
2995;DHT22;35277;49.890;8.222;2022-12-01T07:18:27;21.90;71.30
2995;DHT22;35277;49.890;8.222;2022-12-01T07:20:58;21.90;71.20
2995;DHT22;35277;49.890;8.222;2022-12-01T07:23:26;21.90;71.10
2995;DHT22;35277;49.890;8.222;2022-12-01T07:25:59;21.90;71.00
2995;DHT22;35277;49.890;8.222;2022-12-01T07:28:27;21.90;71.00
2995;DHT22;35277;49.890;8.222;2022-12-01T07:31:00;21.90;70.90
2995;DHT22;35277;49.890;8.222;2022-12-01T07:33:28;21.90;70.80
2995;DHT22;35277;49.890;8.222;2022-12-01T07:35:56;21.90;70.80
2995;DHT22;35277;49.890;8.222;2022-12-01T07:38:26;21.90;70.70
2995;DHT22;35277;49.890;8.222;2022-12-01T07:40:53;21.90;70.70
2995;DHT22;35277;49.890;8.222;2022-12-01T07:43:23;21.90;70.70
2995;DHT22;35277;49.890;8.222;2022-12-01T07:45:50;21.90;70.50
2995;DHT22;35277;49.890;8.222;2022-12-01T07:48:18;21.90;70.50
2995;DHT22;35277;49.890;8.222;2022-12-01T07:50:46;21.90;70.40
2995;DHT22;35277;49.890;8.222;2022-12-01T07:53:14;21.90;70.30
2995;DHT22;35277;49.890;8.222;2022-12-01T07:55:46;21.90;70.30
2995;DHT22;35277;49.890;8.222;2022-12-01T07:58:14;21.90;70.10
2995;DHT22;35277;49.890;8.222;2022-12-01T08:00:43;21.80;69.80
2995;DHT22;35277;49.890;8.222;2022-12-01T08:03:12;21.80;69.70
2995;DHT22;35277;49.890;8.222;2022-12-01T08:05:40;21.80;69.70
2995;DHT22;35277;49.890;8.222;2022-12-01T08:08:07;21.80;69.50
2995;DHT22;35277;49.890;8.222;2022-12-01T08:10:35;21.80;69.50
2995;DHT22;35277;49.890;8.222;2022-12-01T08:13:03;21.80;69.40
2995;DHT22;35277;49.890;8.222;2022-12-01T08:15:31;21.80;69.30
2995;DHT22;35277;49.890;8.222;2022-12-01T08:18:01;21.80;69.20
2995;DHT22;35277;49.890;8.222;2022-12-01T08:20:29;21.80;69.20
2995;DHT22;35277;49.890;8.222;2022-12-01T08:22:59;21.80;69.20
2995;DHT22;35277;49.890;8.222;2022-12-01T08:25:27;21.80;69.10
2995;DHT22;35277;49.890;8.222;2022-12-01T08:27:56;21.80;69.00
2995;DHT22;35277;49.890;8.222;2022-12-01T08:30:24;21.80;69.00
2995;DHT22;35277;49.890;8.222;2022-12-01T08:32:52;21.80;69.00
2995;DHT22;35277;49.890;8.222;2022-12-01T08:35:22;21.80;68.90
2995;DHT22;35277;49.890;8.222;2022-12-01T08:37:50;21.80;68.90
2995;DHT22;35277;49.890;8.222;2022-12-01T08:40:18;21.80;69.00
2995;DHT22;35277;49.890;8.222;2022-12-01T08:42:46;21.80;69.00
2995;DHT22;35277;49.890;8.222;2022-12-01T08:45:14;21.80;68.90
2995;DHT22;35277;49.890;8.222;2022-12-01T08:47:41;21.80;68.90
2995;DHT22;35277;49.890;8.222;2022-12-01T08:50:09;21.80;69.00
2995;DHT22;35277;49.890;8.222;2022-12-01T08:52:39;21.80;69.00
2995;DHT22;35277;49.890;8.222;2022-12-01T08:55:07;21.80;69.00
2995;DHT22;35277;49.890;8.222;2022-12-01T08:57:35;21.80;69.00
2995;DHT22;35277;49.890;8.222;2022-12-01T09:00:04;21.80;68.90
2995;DHT22;35277;49.890;8.222;2022-12-01T09:02:32;21.80;68.90
2995;DHT22;35277;49.890;8.222;2022-12-01T09:05:00;21.80;68.90
2995;DHT22;35277;49.890;8.222;2022-12-01T09:07:28;21.80;68.90
2995;DHT22;35277;49.890;8.222;2022-12-01T09:09:57;21.80;68.90
2995;DHT22;35277;49.890;8.222;2022-12-01T09:12:27;21.80;69.00
2995;DHT22;35277;49.890;8.222;2022-12-01T09:14:55;21.80;68.90
2995;DHT22;35277;49.890;8.222;2022-12-01T09:17:23;21.80;68.90
2995;DHT22;35277;49.890;8.222;2022-12-01T09:19:50;21.80;68.90
2995;DHT22;35277;49.890;8.222;2022-12-01T09:22:18;21.80;68.90
2995;DHT22;35277;49.890;8.222;2022-12-01T09:24:46;21.80;68.90
2995;DHT22;35277;49.890;8.222;2022-12-01T09:27:15;21.80;68.80
2995;DHT22;35277;49.890;8.222;2022-12-01T09:29:43;21.80;68.90
2995;DHT22;35277;49.890;8.222;2022-12-01T09:32:10;21.80;68.90
2995;DHT22;35277;49.890;8.222;2022-12-01T09:34:38;21.80;68.90
2995;DHT22;35277;49.890;8.222;2022-12-01T09:37:06;21.80;68.90
2995;DHT22;35277;49.890;8.222;2022-12-01T09:39:34;21.80;68.90
2995;DHT22;35277;49.890;8.222;2022-12-01T09:42:04;21.80;68.90
2995;DHT22;35277;49.890;8.222;2022-12-01T09:44:39;21.80;68.90
2995;DHT22;35277;49.890;8.222;2022-12-01T09:47:14;21.80;68.90
2995;DHT22;35277;49.890;8.222;2022-12-01T09:49:49;21.80;68.90
2995;DHT22;35277;49.890;8.222;2022-12-01T09:52:21;21.80;68.90
2995;DHT22;35277;49.890;8.222;2022-12-01T09:54:50;21.80;68.70
2995;DHT22;35277;49.890;8.222;2022-12-01T09:57:26;21.80;68.60
2995;DHT22;35277;49.890;8.222;2022-12-01T09:59:57;21.80;68.40
2995;DHT22;35277;49.890;8.222;2022-12-01T10:02:32;21.80;68.30
2995;DHT22;35277;49.890;8.222;2022-12-01T10:05:04;21.80;68.20
2995;DHT22;35277;49.890;8.222;2022-12-01T10:07:36;21.80;68.20
2995;DHT22;35277;49.890;8.222;2022-12-01T10:10:11;21.80;68.10
2995;DHT22;35277;49.890;8.222;2022-12-01T10:12:42;21.80;68.10
2995;DHT22;35277;49.890;8.222;2022-12-01T10:15:26;21.80;68.10
2995;DHT22;35277;49.890;8.222;2022-12-01T10:18:15;21.80;68.10
2995;DHT22;35277;49.890;8.222;2022-12-01T10:20:49;21.80;68.10
2995;DHT22;35277;49.890;8.222;2022-12-01T10:26:09;21.80;68.00
2995;DHT22;35277;49.890;8.222;2022-12-01T10:28:51;21.80;68.10
2995;DHT22;35277;49.890;8.222;2022-12-01T10:31:27;21.80;68.00
2995;DHT22;35277;49.890;8.222;2022-12-01T10:34:00;21.80;68.00
2995;DHT22;35277;49.890;8.222;2022-12-01T10:36:29;21.80;68.00
2995;DHT22;35277;49.890;8.222;2022-12-01T10:38:58;21.80;67.90
2995;DHT22;35277;49.890;8.222;2022-12-01T10:41:27;21.80;67.90
2995;DHT22;35277;49.890;8.222;2022-12-01T10:43:58;21.80;67.90
2995;DHT22;35277;49.890;8.222;2022-12-01T10:46:34;21.80;67.90
2995;DHT22;35277;49.890;8.222;2022-12-01T10:49:08;21.80;68.00
2995;DHT22;35277;49.890;8.222;2022-12-01T10:51:51;21.80;67.90
2995;DHT22;35277;49.890;8.222;2022-12-01T10:54:20;21.90;68.10
2995;DHT22;35277;49.890;8.222;2022-12-01T10:56:53;21.90;68.10
2995;DHT22;35277;49.890;8.222;2022-12-01T10:59:26;21.90;68.10
2995;DHT22;35277;49.890;8.222;2022-12-01T11:01:56;21.90;68.10
2995;DHT22;35277;49.890;8.222;2022-12-01T11:04:33;21.90;68.10
2995;DHT22;35277;49.890;8.222;2022-12-01T11:07:02;21.90;68.10
2995;DHT22;35277;49.890;8.222;2022-12-01T11:09:30;21.90;68.90
2995;DHT22;35277;49.890;8.222;2022-12-01T11:12:01;21.90;68.10
2995;DHT22;35277;49.890;8.222;2022-12-01T11:14:35;21.90;68.10
2995;DHT22;35277;49.890;8.222;2022-12-01T11:17:24;21.90;68.10
2995;DHT22;35277;49.890;8.222;2022-12-01T11:19:52;22.00;68.10
2995;DHT22;35277;49.890;8.222;2022-12-01T11:22:21;21.90;68.00
2995;DHT22;35277;49.890;8.222;2022-12-01T11:24:57;22.00;68.10
2995;DHT22;35277;49.890;8.222;2022-12-01T11:27:29;22.00;68.10
2995;DHT22;35277;49.890;8.222;2022-12-01T11:30:01;22.00;68.10
2995;DHT22;35277;49.890;8.222;2022-12-01T11:32:33;22.00;68.10
2995;DHT22;35277;49.890;8.222;2022-12-01T11:35:03;22.00;68.10
2995;DHT22;35277;49.890;8.222;2022-12-01T11:37:36;22.00;68.10
2995;DHT22;35277;49.890;8.222;2022-12-01T11:40:08;22.00;68.00
2995;DHT22;35277;49.890;8.222;2022-12-01T11:42:40;22.00;68.00
2995;DHT22;35277;49.890;8.222;2022-12-01T11:45:22;22.00;68.00
2995;DHT22;35277;49.890;8.222;2022-12-01T11:48:00;22.00;68.00
2995;DHT22;35277;49.890;8.222;2022-12-01T11:50:30;22.00;67.70
2995;DHT22;35277;49.890;8.222;2022-12-01T11:52:58;21.90;67.00
2995;DHT22;35277;49.890;8.222;2022-12-01T11:55:27;21.90;66.40
2995;DHT22;35277;49.890;8.222;2022-12-01T11:57:58;21.80;65.40
2995;DHT22;35277;49.890;8.222;2022-12-01T12:00:40;21.70;65.00
2995;DHT22;35277;49.890;8.222;2022-12-01T12:03:19;21.70;64.60
2995;DHT22;35277;49.890;8.222;2022-12-01T12:05:57;21.60;64.30
2995;DHT22;35277;49.890;8.222;2022-12-01T12:09:05;21.60;64.10
2995;DHT22;35277;49.890;8.222;2022-12-01T12:11:42;21.60;64.00
2995;DHT22;35277;49.890;8.222;2022-12-01T12:14:22;21.70;64.10
2995;DHT22;35277;49.890;8.222;2022-12-01T12:17:07;21.70;64.00
2995;DHT22;35277;49.890;8.222;2022-12-01T12:19:58;21.60;63.90
2995;DHT22;35277;49.890;8.222;2022-12-01T12:22:55;21.60;63.90
2995;DHT22;35277;49.890;8.222;2022-12-01T12:25:31;21.60;63.80
2995;DHT22;35277;49.890;8.222;2022-12-01T12:28:17;21.60;63.90
2995;DHT22;35277;49.890;8.222;2022-12-01T12:31:04;21.70;64.00
2995;DHT22;35277;49.890;8.222;2022-12-01T12:34:13;21.70;64.00
2995;DHT22;35277;49.890;8.222;2022-12-01T12:36:55;21.70;64.00
2995;DHT22;35277;49.890;8.222;2022-12-01T12:39:36;21.70;64.00
2995;DHT22;35277;49.890;8.222;2022-12-01T12:42:11;21.70;64.10
2995;DHT22;35277;49.890;8.222;2022-12-01T12:44:47;21.70;64.10
2995;DHT22;35277;49.890;8.222;2022-12-01T12:47:24;21.70;64.10
2995;DHT22;35277;49.890;8.222;2022-12-01T12:50:02;21.70;64.10
2995;DHT22;35277;49.890;8.222;2022-12-01T12:52:39;21.70;64.20
2995;DHT22;35277;49.890;8.222;2022-12-01T12:55:13;21.70;64.20
2995;DHT22;35277;49.890;8.222;2022-12-01T12:57:45;21.70;64.20
2995;DHT22;35277;49.890;8.222;2022-12-01T13:00:16;21.80;64.40
2995;DHT22;35277;49.890;8.222;2022-12-01T13:02:47;21.80;64.40
2995;DHT22;35277;49.890;8.222;2022-12-01T13:05:18;21.80;64.40
2995;DHT22;35277;49.890;8.222;2022-12-01T13:07:52;21.80;64.50
2995;DHT22;35277;49.890;8.222;2022-12-01T13:10:26;21.80;64.50
2995;DHT22;35277;49.890;8.222;2022-12-01T13:12:59;21.80;64.50
2995;DHT22;35277;49.890;8.222;2022-12-01T13:15:28;21.80;64.50
2995;DHT22;35277;49.890;8.222;2022-12-01T13:18:00;21.80;64.50
2995;DHT22;35277;49.890;8.222;2022-12-01T13:20:32;21.80;64.60
2995;DHT22;35277;49.890;8.222;2022-12-01T13:23:02;21.80;64.60
2995;DHT22;35277;49.890;8.222;2022-12-01T13:25:34;21.80;64.60
2995;DHT22;35277;49.890;8.222;2022-12-01T13:28:05;21.80;64.70
2995;DHT22;35277;49.890;8.222;2022-12-01T13:30:39;21.90;64.70
2995;DHT22;35277;49.890;8.222;2022-12-01T13:33:14;21.90;64.80
2995;DHT22;35277;49.890;8.222;2022-12-01T13:35:43;21.90;64.80
2995;DHT22;35277;49.890;8.222;2022-12-01T13:38:39;21.90;64.80
2995;DHT22;35277;49.890;8.222;2022-12-01T13:41:22;21.90;64.80
2995;DHT22;35277;49.890;8.222;2022-12-01T13:43:55;21.90;64.80
2995;DHT22;35277;49.890;8.222;2022-12-01T13:46:26;21.90;64.80
2995;DHT22;35277;49.890;8.222;2022-12-01T13:48:55;21.90;64.80
2995;DHT22;35277;49.890;8.222;2022-12-01T13:51:24;21.90;64.90
2995;DHT22;35277;49.890;8.222;2022-12-01T13:54:03;21.90;64.90
2995;DHT22;35277;49.890;8.222;2022-12-01T13:56:38;21.90;65.00
2995;DHT22;35277;49.890;8.222;2022-12-01T14:02:20;21.90;65.10
2995;DHT22;35277;49.890;8.222;2022-12-01T14:04:48;21.90;65.00
2995;DHT22;35277;49.890;8.222;2022-12-01T14:07:36;21.90;65.10
2995;DHT22;35277;49.890;8.222;2022-12-01T14:10:25;21.90;65.10
2995;DHT22;35277;49.890;8.222;2022-12-01T14:12:56;21.90;65.10
2995;DHT22;35277;49.890;8.222;2022-12-01T14:15:43;21.90;65.20
2995;DHT22;35277;49.890;8.222;2022-12-01T14:18:30;21.90;65.30
2995;DHT22;35277;49.890;8.222;2022-12-01T14:21:01;21.90;65.30
2995;DHT22;35277;49.890;8.222;2022-12-01T14:23:32;21.90;65.30
2995;DHT22;35277;49.890;8.222;2022-12-01T14:26:14;21.90;65.30
2995;DHT22;35277;49.890;8.222;2022-12-01T14:34:54;21.90;65.40
2995;DHT22;35277;49.890;8.222;2022-12-01T14:37:26;21.90;65.40
2995;DHT22;35277;49.890;8.222;2022-12-01T14:40:02;21.90;65.50
2995;DHT22;35277;49.890;8.222;2022-12-01T14:42:35;21.90;65.50
2995;DHT22;35277;49.890;8.222;2022-12-01T14:45:24;21.90;65.50
2995;DHT22;35277;49.890;8.222;2022-12-01T14:47:58;21.90;65.60
2995;DHT22;35277;49.890;8.222;2022-12-01T14:50:33;21.90;65.60
2995;DHT22;35277;49.890;8.222;2022-12-01T14:53:16;21.90;65.60
2995;DHT22;35277;49.890;8.222;2022-12-01T14:55:49;21.90;65.70
2995;DHT22;35277;49.890;8.222;2022-12-01T14:58:22;21.90;65.70
2995;DHT22;35277;49.890;8.222;2022-12-01T15:00:59;21.90;65.70
2995;DHT22;35277;49.890;8.222;2022-12-01T15:03:33;21.90;65.70
2995;DHT22;35277;49.890;8.222;2022-12-01T15:06:02;21.90;65.70
2995;DHT22;35277;49.890;8.222;2022-12-01T15:08:31;21.90;65.70
2995;DHT22;35277;49.890;8.222;2022-12-01T15:11:20;21.90;65.70
2995;DHT22;35277;49.890;8.222;2022-12-01T15:13:50;21.90;65.70
2995;DHT22;35277;49.890;8.222;2022-12-01T15:16:20;21.90;65.60
2995;DHT22;35277;49.890;8.222;2022-12-01T15:18:48;21.90;65.70
2995;DHT22;35277;49.890;8.222;2022-12-01T15:21:18;21.90;65.70
2995;DHT22;35277;49.890;8.222;2022-12-01T15:23:55;21.90;65.60
2995;DHT22;35277;49.890;8.222;2022-12-01T15:26:25;21.90;65.70
2995;DHT22;35277;49.890;8.222;2022-12-01T15:29:12;21.90;65.60
2995;DHT22;35277;49.890;8.222;2022-12-01T15:31:41;21.90;65.70
2995;DHT22;35277;49.890;8.222;2022-12-01T15:34:14;21.90;65.60
2995;DHT22;35277;49.890;8.222;2022-12-01T15:36:42;21.90;65.60
2995;DHT22;35277;49.890;8.222;2022-12-01T15:39:13;21.90;65.60
2995;DHT22;35277;49.890;8.222;2022-12-01T15:41:45;21.90;65.60
2995;DHT22;35277;49.890;8.222;2022-12-01T15:44:20;21.90;65.60
2995;DHT22;35277;49.890;8.222;2022-12-01T15:46:49;21.90;65.70
2995;DHT22;35277;49.890;8.222;2022-12-01T15:49:18;21.90;65.60
2995;DHT22;35277;49.890;8.222;2022-12-01T15:51:47;21.90;65.60
2995;DHT22;35277;49.890;8.222;2022-12-01T15:54:18;21.90;65.70
2995;DHT22;35277;49.890;8.222;2022-12-01T15:56:50;21.90;65.70
2995;DHT22;35277;49.890;8.222;2022-12-01T15:59:39;21.90;65.70
2995;DHT22;35277;49.890;8.222;2022-12-01T16:02:22;21.90;65.70
2995;DHT22;35277;49.890;8.222;2022-12-01T16:04:59;21.90;65.80
2995;DHT22;35277;49.890;8.222;2022-12-01T16:07:32;21.90;65.90
2995;DHT22;35277;49.890;8.222;2022-12-01T16:10:26;21.90;65.90
2995;DHT22;35277;49.890;8.222;2022-12-01T16:15:57;21.90;65.90
2995;DHT22;35277;49.890;8.222;2022-12-01T16:18:29;21.90;65.90
2995;DHT22;35277;49.890;8.222;2022-12-01T16:21:01;22.00;66.10
2995;DHT22;35277;49.890;8.222;2022-12-01T16:23:30;21.90;66.00
2995;DHT22;35277;49.890;8.222;2022-12-01T16:25:59;22.00;66.20
2995;DHT22;35277;49.890;8.222;2022-12-01T16:28:31;22.00;66.30
2995;DHT22;35277;49.890;8.222;2022-12-01T16:31:03;22.00;66.40